Time;durP1;ratioP1;P1;durP2;ratioP2;P2;SDS_P1;SDS_P2;PMS_P1;PMS_P2;Temp;Humidity;BMP_temperature;BMP_pressure;BME280_temperature;BME280_humidity;BME280_pressure;Samples;Min_cycle;Max_cycle;Signal;HPM_P1;HPM_P2
2022/06/24 00:00:10;;;;;;;4.55;2.92;;;;;;;18.17;76.22;99485.42;1591564;89;21039;-77
2022/06/24 00:02:38;;;;;;;5.20;3.50;;;;;;;18.18;76.09;99491.90;1565056;89;21110;-84
2022/06/24 00:05:14;;;;;;;3.40;3.10;;;;;;;18.18;76.07;99486.45;1586253;90;21049;-81
2022/06/24 00:07:46;;;;;;;3.45;3.00;;;;;;;18.16;76.06;99480.53;1566212;90;21338;-83
2022/06/24 00:10:18;;;;;;;2.98;2.77;;;;;;;18.15;76.06;99484.35;1591425;88;21085;-79
2022/06/24 00:12:45;;;;;;;9.05;2.90;;;;;;;18.17;76.11;99491.67;1573623;90;21054;-77
2022/06/24 00:15:12;;;;;;;3.85;3.22;;;;;;;18.19;75.95;99479.09;1574636;91;21068;-75
2022/06/24 00:17:39;;;;;;;3.65;3.12;;;;;;;18.20;75.92;99483.44;1577846;90;21512;-80
2022/06/24 00:20:09;;;;;;;6.37;3.15;;;;;;;18.20;75.84;99480.16;1582516;90;21431;-81
2022/06/24 00:22:47;;;;;;;3.47;2.52;;;;;;;18.18;75.95;99486.45;1569597;89;21060;-79
2022/06/24 00:25:21;;;;;;;3.30;3.00;;;;;;;18.17;76.16;99486.78;1575842;90;21026;-79
2022/06/24 00:28:07;;;;;;;;;;;;;;;18.14;76.28;99482.73;1569476;90;21088;-82
2022/06/24 00:30:46;;;;;;;3.95;3.55;;;;;;;18.13;76.42;99484.42;1575177;91;20198;-79
2022/06/24 00:33:18;;;;;;;3.65;2.77;;;;;;;18.10;76.90;99477.66;1569461;89;21056;-74
2022/06/24 00:35:50;;;;;;;3.50;3.30;;;;;;;18.10;76.95;99478.20;1577777;90;21525;-75
2022/06/24 00:38:36;;;;;;;3.60;3.25;;;;;;;18.09;77.22;99474.67;1566298;91;21070;-76
2022/06/24 00:41:13;;;;;;;3.27;2.50;;;;;;;18.06;77.44;99472.58;1565974;91;21049;-77
2022/06/24 00:43:41;;;;;;;5.05;3.05;;;;;;;18.07;77.60;99463.30;1567965;90;21095;-77
2022/06/24 00:46:19;;;;;;;3.08;2.87;;;;;;;18.08;77.80;99470.34;1573528;90;21925;-81
2022/06/24 00:48:50;;;;;;;6.37;2.67;;;;;;;18.08;77.88;99480.44;1578694;90;21009;-79
2022/06/24 00:51:18;;;;;;;3.85;3.45;;;;;;;18.08;78.32;99475.00;1573664;89;21073;-75
2022/06/24 00:53:50;;;;;;;3.50;2.98;;;;;;;18.06;78.93;99484.82;1564043;89;21103;-81
2022/06/24 00:56:19;;;;;;;5.35;2.87;;;;;;;18.01;79.71;99469.14;1563678;91;20980;-78
2022/06/24 00:59:01;;;;;;;3.25;2.95;;;;;;;17.94;80.50;99457.88;1571713;90;21345;-78
2022/06/24 01:01:30;;;;;;;3.70;3.10;;;;;;;17.88;80.92;99459.89;1554569;90;21079;-80
2022/06/24 01:03:58;;;;;;;3.40;3.10;;;;;;;17.83;81.55;99460.80;1563795;91;21012;-78
2022/06/24 01:06:28;;;;;;;5.45;3.40;;;;;;;17.80;82.18;99456.50;1564020;91;21110;-80
2022/06/24 01:08:56;;;;;;;3.67;3.37;;;;;;;17.76;82.83;99463.66;1553199;91;21132;-77
2022/06/24 01:11:36;;;;;;;3.92;3.62;;;;;;;17.69;83.32;99470.08;1598843;87;21532;-77
2022/06/24 01:14:02;;;;;;;4.83;3.60;;;;;;;17.63;83.48;99461.75;1597804;89;21030;-78
2022/06/24 01:16:30;;;;;;;4.05;3.37;;;;;;;17.60;83.61;99459.06;1588093;88;21406;-81
2022/06/24 01:18:59;;;;;;;5.20;3.30;;;;;;;17.60;83.36;99466.45;1597489;88;21056;-80
2022/06/24 01:21:49;;;;;;;5.00;3.70;;;;;;;17.61;83.36;99474.84;1586582;90;21058;-78
2022/06/24 01:24:19;;;;;;;3.70;3.40;;;;;;;17.63;83.17;99479.43;1582633;89;21129;-79
2022/06/24 01:26:49;;;;;;;4.10;3.67;;;;;;;17.62;83.15;99470.47;1598916;88;21083;-80
2022/06/24 01:29:16;;;;;;;7.47;3.90;;;;;;;17.63;83.05;99482.16;1587767;89;21116;-79
2022/06/24 01:31:45;;;;;;;5.03;2.92;;;;;;;17.65;83.07;99478.59;1588413;89;21031;-78
2022/06/24 01:34:12;;;;;;;6.05;3.83;;;;;;;17.67;83.08;99483.97;1587028;90;21111;-79
2022/06/24 01:36:38;;;;;;;8.98;4.97;;;;;;;17.70;82.80;99482.55;1587200;90;21802;-81
2022/06/24 01:39:05;;;;;;;3.83;3.52;;;;;;;17.70;82.57;99477.91;1586966;90;20999;-79
2022/06/24 01:41:33;;;;;;;4.40;3.98;;;;;;;17.72;82.45;99483.06;1587193;90;21112;-80
2022/06/24 01:43:59;;;;;;;4.47;3.42;;;;;;;17.71;82.13;99475.45;1590121;89;21684;-79
2022/06/24 01:46:26;;;;;;;5.72;4.12;;;;;;;17.73;81.99;99479.24;1587262;90;21552;-77
2022/06/24 01:48:53;;;;;;;4.03;3.72;;;;;;;17.74;81.83;99480.86;1587511;89;21157;-82
2022/06/24 01:51:22;;;;;;;7.10;3.87;;;;;;;17.78;81.37;99472.34;1587222;90;21323;-79
2022/06/24 01:53:50;;;;;;;6.67;5.05;;;;;;;17.79;80.85;99474.73;1587494;90;21524;-79
2022/06/24 01:56:17;;;;;;;4.30;3.90;;;;;;;17.82;80.42;99470.62;1585776;90;21587;-80
2022/06/24 01:58:44;;;;;;;4.90;4.03;;;;;;;17.82;80.17;99468.71;1584631;90;21541;-77
2022/06/24 02:01:11;;;;;;;5.17;3.35;;;;;;;17.81;79.59;99462.20;1588157;89;21248;-79
2022/06/24 02:03:38;;;;;;;4.08;3.67;;;;;;;17.79;79.43;99460.36;1587542;90;21585;-77
2022/06/24 02:06:09;;;;;;;3.65;3.30;;;;;;;17.78;79.21;99467.70;1587322;90;21055;-77
2022/06/24 02:08:36;;;;;;;4.50;3.65;;;;;;;17.79;79.16;99469.88;1589697;89;21117;-77
2022/06/24 02:13:48;;;;;;;3.08;2.77;;;;;;;17.78;78.83;99464.18;1614320;88;21130;-80
2022/06/24 02:16:16;;;;;;;4.03;3.30;;;;;;;17.76;78.62;99460.39;1597987;88;20999;-78
2022/06/24 02:18:44;;;;;;;3.30;3.00;;;;;;;17.76;78.56;99467.19;1592422;88;21011;-78
2022/06/24 02:21:11;;;;;;;4.45;3.62;;;;;;;17.79;78.38;99461.72;1614331;88;21101;-78
2022/06/24 02:23:39;;;;;;;4.30;3.25;;;;;;;17.81;78.16;99459.48;1614397;88;21042;-77
2022/06/24 02:26:07;;;;;;;5.53;3.72;;;;;;;17.83;78.00;99462.17;1613944;88;21942;-79
2022/06/24 02:28:35;;;;;;;4.70;3.25;;;;;;;17.84;77.84;99454.81;1614000;88;21011;-78
2022/06/24 02:31:03;;;;;;;8.98;3.87;;;;;;;17.83;77.72;99462.72;1607583;88;21035;-80
2022/06/24 02:33:31;;;;;;;7.62;3.02;;;;;;;17.84;77.50;99461.62;1608353;88;21106;-80
2022/06/24 02:35:58;;;;;;;3.12;2.70;;;;;;;17.83;77.41;99465.44;1591275;90;21119;-79
2022/06/24 02:38:25;;;;;;;4.12;3.33;;;;;;;17.82;77.05;99461.91;1589988;89;21386;-78
2022/06/24 02:40:52;;;;;;;4.40;2.98;;;;;;;17.82;76.92;99466.55;1611870;88;21578;-79
2022/06/24 02:43:26;;;;;;;3.83;3.52;;;;;;;17.82;76.55;99463.27;1614291;88;20951;-79
2022/06/24 02:45:56;;;;;;;5.58;3.85;;;;;;;17.84;76.32;99463.75;1614401;88;20931;-79
2022/06/24 02:48:22;;;;;;;4.42;2.85;;;;;;;17.83;76.01;99458.64;1614371;88;21050;-78
2022/06/24 02:50:51;;;;;;;4.45;3.30;;;;;;;17.81;75.70;99465.73;1591033;88;21179;-77
2022/06/24 02:53:19;;;;;;;6.00;2.70;;;;;;;17.82;75.33;99467.34;1590642;88;21047;-79
2022/06/24 02:55:50;;;;;;;9.40;3.45;;;;;;;17.85;75.28;99469.45;1589925;90;21500;-77
2022/06/24 02:58:16;;;;;;;3.58;2.42;;;;;;;17.86;75.21;99471.62;1601317;88;21060;-77
2022/06/24 03:00:43;;;;;;;3.10;2.77;;;;;;;17.83;74.57;99471.69;1592294;88;21046;-80
2022/06/24 03:03:16;;;;;;;6.85;3.08;;;;;;;17.82;74.49;99467.34;1587960;90;21129;-79
2022/06/24 03:05:42;;;;;;;3.83;3.52;;;;;;;17.83;74.26;99470.33;1588137;90;22237;-78
2022/06/24 03:08:12;;;;;;;3.10;2.90;;;;;;;17.85;73.88;99470.81;1588320;89;21076;-78
2022/06/24 03:10:39;;;;;;;6.00;3.30;;;;;;;17.88;73.79;99465.89;1589191;88;21066;-74
2022/06/24 03:13:07;;;;;;;4.17;3.10;;;;;;;17.86;73.50;99464.27;1589422;89;21046;-75
2022/06/24 03:15:34;;;;;;;2.92;2.72;;;;;;;17.86;73.05;99468.35;1589977;90;21293;-74
2022/06/24 03:18:02;;;;;;;4.45;3.25;;;;;;;17.89;72.83;99457.41;1589929;90;21015;-75
2022/06/24 03:20:29;;;;;;;8.75;3.72;;;;;;;17.93;72.61;99459.80;1598896;88;21048;-76
2022/06/24 03:22:56;;;;;;;8.58;3.40;;;;;;;17.94;71.95;99460.02;1591211;90;21627;-76
2022/06/24 03:25:23;;;;;;;5.17;2.75;;;;;;;17.98;71.27;99457.52;1591364;90;21076;-78
2022/06/24 03:27:49;;;;;;;3.25;2.40;;;;;;;18.04;71.09;99465.80;1592700;90;21426;-78
2022/06/24 03:30:16;;;;;;;6.10;3.10;;;;;;;18.05;70.75;99461.43;1590527;88;21043;-80
2022/06/24 03:32:42;;;;;;;7.62;2.40;;;;;;;18.09;70.68;99467.87;1589759;88;21014;-78
2022/06/24 03:35:09;;;;;;;9.23;2.85;;;;;;;18.13;70.44;99466.73;1588103;90;21081;-80
2022/06/24 03:37:36;;;;;;;7.75;4.03;;;;;;;18.15;69.79;99470.74;1567623;90;21140;-80
2022/06/24 03:40:04;;;;;;;4.08;2.40;;;;;;;18.19;69.51;99464.12;1602058;88;21153;-81
2022/06/24 03:42:30;;;;;;;4.08;2.72;;;;;;;18.22;69.24;99469.75;1614210;88;21582;-80
2022/06/24 03:44:57;;;;;;;4.00;3.10;;;;;;;18.23;69.31;99470.02;1585726;90;21003;-76
2022/06/24 03:47:24;;;;;;;5.95;2.60;;;;;;;18.25;69.30;99473.25;1591340;89;21086;-77
2022/06/24 03:49:51;;;;;;;3.42;2.52;;;;;;;18.23;69.40;99465.13;1594832;88;21127;-79
2022/06/24 03:52:18;;;;;;;5.55;2.72;;;;;;;18.24;69.45;99477.63;1609893;88;22106;-76
2022/06/24 03:54:45;;;;;;;2.55;2.08;;;;;;;18.22;68.98;99471.12;1594362;88;21070;-79
2022/06/24 03:57:12;;;;;;;3.58;3.08;;;;;;;18.19;68.88;99473.66;1590240;90;21108;-78
2022/06/24 03:59:38;;;;;;;2.20;2.00;;;;;;;18.18;68.97;99472.03;1595265;88;21022;-77
2022/06/24 04:02:05;;;;;;;8.45;3.10;;;;;;;18.20;69.15;99477.44;1614154;88;21090;-76
2022/06/24 04:04:32;;;;;;;4.47;2.72;;;;;;;18.19;68.84;99471.73;1612636;88;22065;-79
2022/06/24 04:06:59;;;;;;;2.65;2.45;;;;;;;18.23;69.09;99478.18;1590072;89;21114;-78
2022/06/24 04:09:26;;;;;;;5.95;2.70;;;;;;;18.24;68.82;99479.80;1590384;88;21042;-81
2022/06/24 04:11:52;;;;;;;3.17;2.70;;;;;;;18.28;68.71;99478.62;1589269;90;21098;-81
2022/06/24 04:15:13;;;;;;;4.50;2.62;;;;;;;18.30;67.71;99478.59;1591713;89;21081;-80
2022/06/24 04:16:48;;;;;;;5.65;2.47;;;;;;;18.35;67.86;99475.50;1590420;88;22015;-80
2022/06/24 04:19:14;;;;;;;3.85;2.83;;;;;;;18.40;67.53;99484.36;1616602;88;21012;-79
2022/06/24 04:21:41;;;;;;;7.37;3.17;;;;;;;18.43;67.13;99476.93;1609062;89;21108;-79
2022/06/24 04:24:08;;;;;;;3.05;2.50;;;;;;;18.47;67.08;99481.20;1610436;88;21091;-78
2022/06/24 04:26:35;;;;;;;4.10;2.83;;;;;;;18.51;67.06;99478.92;1604994;88;21584;-76
2022/06/24 04:29:02;;;;;;;2.70;2.50;;;;;;;18.55;67.03;99487.33;1584471;89;21172;-77
2022/06/24 04:31:29;;;;;;;9.08;2.85;;;;;;;18.61;66.52;99491.53;1609418;89;21072;-77
2022/06/24 04:33:55;;;;;;;4.75;2.67;;;;;;;18.63;66.57;99489.31;1610414;89;21412;-77
2022/06/24 04:36:22;;;;;;;3.47;2.42;;;;;;;18.65;66.19;99486.55;1600572;88;21576;-79
2022/06/24 04:38:48;;;;;;;6.75;3.10;;;;;;;18.68;66.10;99486.48;1591923;89;21071;-75
2022/06/24 04:41:19;;;;;;;4.85;2.77;;;;;;;18.71;66.29;99484.48;1590811;89;21527;-75
2022/06/24 04:43:45;;;;;;;2.83;2.60;;;;;;;18.72;65.22;99492.92;1591083;90;20985;-76
2022/06/24 04:46:11;;;;;;;5.65;2.80;;;;;;;18.79;65.70;99492.50;1590738;90;21133;-76
2022/06/24 04:48:39;;;;;;;5.47;2.67;;;;;;;18.80;65.59;99505.80;1590751;90;21595;-78
2022/06/24 04:51:11;;;;;;;4.12;2.95;;;;;;;18.83;65.40;99498.94;1592256;89;21539;-77
2022/06/24 04:53:37;;;;;;;2.77;2.50;;;;;;;18.87;65.13;99502.66;1593316;89;21267;-77
2022/06/24 04:56:05;;;;;;;3.12;2.60;;;;;;;18.91;64.80;99506.36;1589775;90;21560;-77
2022/06/24 04:58:32;;;;;;;4.67;2.90;;;;;;;18.94;64.70;99507.94;1589679;90;21115;-79
2022/06/24 05:00:59;;;;;;;6.83;2.90;;;;;;;18.98;64.80;99503.47;1593383;88;21029;-80
2022/06/24 05:03:26;;;;;;;5.08;2.80;;;;;;;19.02;64.67;99505.02;1591086;90;21056;-79
2022/06/24 05:05:53;;;;;;;4.12;2.67;;;;;;;19.05;64.47;99507.11;1590880;90;21414;-78
2022/06/24 05:08:19;;;;;;;3.52;3.22;;;;;;;19.10;64.55;99502.34;1590640;89;21035;-80
2022/06/24 05:10:46;;;;;;;3.58;2.77;;;;;;;19.13;64.56;99504.47;1593695;89;21062;-78
2022/06/24 05:13:12;;;;;;;4.83;3.00;;;;;;;19.18;64.30;99500.00;1586312;90;21631;-77
2022/06/24 05:15:39;;;;;;;8.93;3.50;;;;;;;19.24;63.72;99510.45;1586252;90;21126;-77
2022/06/24 05:18:06;;;;;;;2.75;2.52;;;;;;;19.29;62.07;99502.70;1586528;90;21116;-76
2022/06/24 05:20:34;;;;;;;3.98;3.15;;;;;;;19.35;62.02;99504.19;1586906;89;21039;-77
2022/06/24 05:23:01;;;;;;;3.37;2.25;;;;;;;19.39;62.39;99511.43;1588806;90;21030;-76
2022/06/24 05:25:27;;;;;;;3.83;2.92;;;;;;;19.39;62.06;99507.34;1588768;90;21138;-76
2022/06/24 05:27:54;;;;;;;9.40;3.47;;;;;;;19.45;61.99;99508.05;1588688;90;21048;-76
2022/06/24 05:30:21;;;;;;;5.08;2.98;;;;;;;19.51;61.41;99511.70;1589310;89;21097;-78
2022/06/24 05:32:48;;;;;;;8.03;2.95;;;;;;;19.60;61.60;99515.84;1607555;89;21026;-76
2022/06/24 05:35:14;;;;;;;4.03;3.02;;;;;;;19.70;61.07;99510.11;1607888;89;21584;-76
2022/06/24 05:37:41;;;;;;;6.15;2.72;;;;;;;19.80;60.90;99515.85;1591619;89;21058;-77
2022/06/24 05:40:09;;;;;;;2.77;2.58;;;;;;;19.87;60.72;99523.81;1605973;88;21031;-76
2022/06/24 05:42:36;;;;;;;3.30;2.50;;;;;;;19.93;60.39;99517.11;1578765;90;21267;-75
2022/06/24 05:45:03;;;;;;;3.08;2.77;;;;;;;20.01;60.09;99524.52;1577512;90;21082;-76
2022/06/24 05:47:30;;;;;;;3.25;2.87;;;;;;;20.09;60.12;99524.31;1590070;88;21086;-78
2022/06/24 05:49:56;;;;;;;4.37;2.92;;;;;;;20.16;59.63;99526.00;1586239;90;21091;-76
2022/06/24 05:55:09;;;;;;;7.47;4.05;;;;;;;20.31;59.30;99517.96;1586897;89;21394;-76
2022/06/24 05:57:36;;;;;;;4.58;3.37;;;;;;;20.39;58.38;99525.36;1587431;90;21124;-76
2022/06/24 06:00:04;;;;;;;8.00;2.80;;;;;;;20.48;58.31;99529.50;1600948;89;21516;-77
2022/06/24 06:02:32;;;;;;;3.15;2.92;;;;;;;20.53;57.54;99520.56;1584849;88;21159;-76
2022/06/24 06:04:59;;;;;;;9.50;3.85;;;;;;;20.58;57.33;99532.70;1584571;90;21089;-75
2022/06/24 06:07:26;;;;;;;4.37;3.33;;;;;;;20.64;57.09;99536.90;1586092;90;21411;-75
2022/06/24 06:09:53;;;;;;;3.55;3.12;;;;;;;20.70;57.08;99540.28;1586282;90;20957;-77
2022/06/24 06:12:20;;;;;;;3.75;3.15;;;;;;;20.74;57.24;99537.95;1607522;88;21050;-76
2022/06/24 06:14:46;;;;;;;4.67;3.42;;;;;;;20.76;57.40;99539.82;1614118;88;20979;-76
2022/06/24 06:17:14;;;;;;;3.80;3.25;;;;;;;20.79;57.49;99543.27;1614114;88;21701;-76
2022/06/24 06:19:40;;;;;;;3.95;2.98;;;;;;;20.82;57.42;99546.72;1611423;88;21662;-76
2022/06/24 06:22:07;;;;;;;26.15;3.45;;;;;;;20.84;57.66;99544.48;1591324;88;21078;-76
2022/06/24 06:24:33;;;;;;;5.87;3.12;;;;;;;20.87;57.49;99545.19;1582419;88;21101;-79
2022/06/24 06:27:03;;;;;;;5.08;3.10;;;;;;;20.91;57.24;99550.81;1602581;88;21040;-78
2022/06/24 06:29:29;;;;;;;8.63;4.12;;;;;;;20.92;57.41;99555.72;1594180;88;21141;-78
2022/06/24 06:31:56;;;;;;;3.65;3.35;;;;;;;20.96;57.52;99552.61;1596513;88;21633;-80
2022/06/24 06:34:23;;;;;;;4.22;3.72;;;;;;;20.99;57.31;99547.86;1591378;88;21574;-77
2022/06/24 06:36:49;;;;;;;6.67;3.40;;;;;;;20.98;57.45;99550.34;1603461;88;21059;-76
2022/06/24 06:39:16;;;;;;;4.62;3.02;;;;;;;21.00;57.56;99545.38;1593442;88;21047;-76
2022/06/24 06:41:46;;;;;;;4.15;3.60;;;;;;;21.03;58.10;99544.71;1585089;88;21001;-77
2022/06/24 06:44:12;;;;;;;5.33;3.00;;;;;;;21.08;57.79;99550.02;1572500;90;21186;-80
2022/06/24 06:46:39;;;;;;;7.47;3.70;;;;;;;21.09;57.78;99542.88;1590472;89;21087;-77
2022/06/24 06:49:06;;;;;;;8.25;3.20;;;;;;;21.15;57.90;99548.42;1592868;90;21122;-81
2022/06/24 06:51:33;;;;;;;4.80;3.50;;;;;;;21.23;57.94;99549.00;1592877;90;21107;-78
2022/06/24 06:54:00;;;;;;;6.78;3.65;;;;;;;21.34;58.00;99550.84;1592918;90;21135;-78
2022/06/24 06:56:27;;;;;;;4.62;3.87;;;;;;;21.42;57.45;99556.05;1591770;88;22063;-77
2022/06/24 06:58:53;;;;;;;4.40;3.87;;;;;;;21.47;57.28;99549.84;1588042;90;21569;-81
2022/06/24 07:01:20;;;;;;;5.30;4.40;;;;;;;21.53;56.80;99558.14;1589708;89;21081;-81
2022/06/24 07:03:47;;;;;;;4.40;4.00;;;;;;;21.59;56.44;99560.91;1590014;88;21563;-80
2022/06/24 07:06:13;;;;;;;3.60;3.30;;;;;;;21.64;56.59;99566.22;1596712;88;21039;-80
2022/06/24 07:08:39;;;;;;;6.35;4.22;;;;;;;21.68;56.60;99571.28;1614207;88;21913;-79
2022/06/24 07:11:07;;;;;;;7.20;3.62;;;;;;;21.74;56.48;99569.98;1614143;88;21098;-80
2022/06/24 07:13:34;;;;;;;6.72;4.85;;;;;;;21.78;56.39;99566.58;1611192;88;21436;-81
2022/06/24 07:16:00;;;;;;;4.10;3.60;;;;;;;21.75;55.83;99567.48;1599575;88;21160;-77
2022/06/24 07:18:27;;;;;;;3.92;3.15;;;;;;;21.75;55.02;99559.84;1590151;89;21051;-91
2022/06/24 07:20:53;;;;;;;4.70;3.50;;;;;;;21.73;54.95;99571.10;1593014;88;21158;-85
2022/06/24 07:23:21;;;;;;;4.55;3.62;;;;;;;21.73;55.23;99567.56;1603151;88;21072;-87
2022/06/24 07:25:47;;;;;;;3.40;3.10;;;;;;;21.72;55.19;99559.94;1591696;89;21114;-80
2022/06/24 07:28:14;;;;;;;5.42;4.05;;;;;;;21.65;54.67;99558.81;1591984;89;21027;-82
2022/06/24 07:30:41;;;;;;;7.83;3.58;;;;;;;21.67;54.93;99556.56;1596379;89;21576;-81
2022/06/24 07:33:09;;;;;;;5.90;3.33;;;;;;;21.62;55.25;99572.60;1597619;89;21604;-87
2022/06/24 07:35:36;;;;;;;4.33;3.05;;;;;;;21.61;55.15;99578.39;1589655;90;21038;-86
2022/06/24 07:38:03;;;;;;;3.72;2.70;;;;;;;21.62;54.78;99552.63;1589712;90;21126;-81
2022/06/24 07:40:30;;;;;;;5.97;3.52;;;;;;;21.65;54.79;99560.98;1589151;89;21039;-92
2022/06/24 07:42:56;;;;;;;3.65;3.20;;;;;;;21.64;54.64;99556.64;1595741;89;21092;-93
2022/06/24 07:45:23;;;;;;;5.03;3.55;;;;;;;21.68;54.90;99560.33;1603597;89;21115;-91
2022/06/24 07:47:50;;;;;;;4.30;3.22;;;;;;;21.71;54.67;99563.80;1582410;90;22209;-83
2022/06/24 07:50:16;;;;;;;4.20;3.42;;;;;;;21.73;54.82;99563.45;1592714;89;21584;-94
2022/06/24 07:52:43;;;;;;;4.17;3.80;;;;;;;21.73;54.82;99565.63;1600171;89;21040;-89
2022/06/24 07:57:55;;;;;;;7.50;3.42;;;;;;;21.81;54.78;99568.68;1597091;89;21641;-85
2022/06/24 08:00:21;;;;;;;3.50;3.20;;;;;;;21.82;54.90;99567.55;1594487;89;21083;-87
2022/06/24 08:02:48;;;;;;;7.72;3.50;;;;;;;21.85;54.93;99569.06;1608762;89;21571;-84
2022/06/24 08:05:15;;;;;;;3.00;2.72;;;;;;;21.88;54.76;99556.64;1566392;91;20999;-86
2022/06/24 08:07:43;;;;;;;3.30;3.00;;;;;;;21.93;54.57;99564.15;1581003;89;21122;-85
2022/06/24 08:10:10;;;;;;;5.87;4.45;;;;;;;22.00;54.42;99565.83;1591236;89;21150;-84
2022/06/24 08:12:37;;;;;;;5.25;3.42;;;;;;;22.09;54.73;99566.59;1606909;87;21093;-83
2022/06/24 08:15:05;;;;;;;5.47;3.62;;;;;;;22.18;54.00;99555.59;1597963;88;21647;-84
2022/06/24 08:17:32;;;;;;;5.25;3.90;;;;;;;22.28;54.03;99565.38;1604748;89;21141;-82
2022/06/24 08:19:58;;;;;;;7.75;3.65;;;;;;;22.32;53.88;99567.12;1603550;89;20985;-83
2022/06/24 08:22:25;;;;;;;3.85;3.55;;;;;;;22.40;53.61;99561.34;1596980;88;21130;-83
2022/06/24 08:24:51;;;;;;;4.03;3.67;;;;;;;22.48;53.25;99564.63;1591350;88;21093;-85
2022/06/24 08:27:18;;;;;;;6.15;3.67;;;;;;;22.57;53.58;99555.77;1570982;90;21043;-83
2022/06/24 08:29:45;;;;;;;11.05;4.17;;;;;;;22.67;53.32;99551.84;1571154;90;21086;-82
2022/06/24 08:32:12;;;;;;;6.15;4.12;;;;;;;22.76;52.78;99551.23;1591599;90;21131;-84
2022/06/24 08:34:38;;;;;;;5.20;3.60;;;;;;;22.85;52.12;99550.59;1591455;90;21189;-84
2022/06/24 08:37:05;;;;;;;4.15;3.85;;;;;;;22.96;51.70;99547.70;1594075;88;21654;-85
2022/06/24 08:39:32;;;;;;;8.93;4.33;;;;;;;23.07;51.56;99548.09;1591434;90;21084;-83
2022/06/24 08:42:00;;;;;;;5.28;3.22;;;;;;;23.17;50.48;99548.46;1591725;90;21108;-79
2022/06/24 08:44:26;;;;;;;5.62;4.72;;;;;;;23.28;50.56;99548.86;1591359;90;21111;-82
2022/06/24 08:46:53;;;;;;;6.25;4.50;;;;;;;23.38;49.67;99545.69;1589497;88;21358;-80
2022/06/24 08:49:19;;;;;;;7.10;6.35;;;;;;;23.48;49.31;99551.36;1588111;90;21053;-84
2022/06/24 08:51:47;;;;;;;6.58;3.70;;;;;;;23.58;49.16;99544.06;1590752;88;21052;-85
2022/06/24 08:54:18;;;;;;;7.17;4.90;;;;;;;23.69;49.13;99543.87;1590343;89;21039;-82
2022/06/24 08:56:45;;;;;;;15.45;4.12;;;;;;;23.73;48.45;99548.34;1592277;88;21071;-81
2022/06/24 08:59:12;;;;;;;7.03;3.58;;;;;;;23.82;48.57;99549.61;1590105;88;21161;-84
2022/06/24 09:01:43;;;;;;;7.58;4.28;;;;;;;23.92;48.34;99544.25;1591943;88;21568;-86
2022/06/24 09:04:10;;;;;;;4.92;3.95;;;;;;;24.02;48.64;99545.17;1588467;88;21665;-81
2022/06/24 09:06:38;;;;;;;5.03;3.80;;;;;;;24.13;47.79;99536.69;1605177;88;21524;-80
2022/06/24 09:09:07;;;;;;;4.92;4.25;;;;;;;24.21;47.21;99535.25;1608153;88;21089;-77
2022/06/24 09:11:41;;;;;;;6.37;3.95;;;;;;;24.28;46.92;99528.59;1609268;88;21826;-78
2022/06/24 09:14:08;;;;;;;7.42;3.83;;;;;;;24.36;46.63;99526.88;1583993;89;21150;-81
2022/06/24 09:16:37;;;;;;;7.72;4.00;;;;;;;24.44;46.48;99518.27;1591997;89;21055;-79
2022/06/24 09:19:05;;;;;;;7.85;3.42;;;;;;;24.52;46.03;99537.38;1588354;89;21555;-80
2022/06/24 09:21:41;;;;;;;8.45;4.95;;;;;;;24.63;45.60;99527.52;1581878;89;21127;-81
2022/06/24 09:24:08;;;;;;;8.25;4.22;;;;;;;24.71;45.55;99533.45;1573367;90;21148;-77
2022/06/24 09:26:39;;;;;;;5.65;4.10;;;;;;;24.83;45.89;99526.32;1578403;89;21501;-81
2022/06/24 09:29:13;;;;;;;8.65;4.35;;;;;;;24.89;45.12;99534.00;1574203;89;21117;-83
2022/06/24 09:31:40;;;;;;;4.12;3.72;;;;;;;24.94;44.84;99531.00;1585679;90;21312;-81
2022/06/24 09:34:13;;;;;;;5.25;4.28;;;;;;;25.00;44.30;99528.81;1584659;90;21647;-78
2022/06/24 09:36:45;;;;;;;4.95;3.60;;;;;;;24.96;43.91;99526.53;1584797;89;21207;-86
2022/06/24 09:39:13;;;;;;;3.60;3.30;;;;;;;24.96;44.51;99524.58;1582160;89;21273;-88
2022/06/24 09:41:50;;;;;;;4.67;3.17;;;;;;;24.97;44.62;99526.77;1580993;90;21095;-86
2022/06/24 09:44:17;;;;;;;4.20;3.30;;;;;;;24.95;44.46;99524.35;1582838;89;21127;-87
2022/06/24 09:46:44;;;;;;;5.80;3.70;;;;;;;24.94;44.13;99530.23;1585193;89;21028;-87
2022/06/24 09:49:13;;;;;;;4.22;3.70;;;;;;;24.89;44.46;99526.34;1596576;89;21117;-78
2022/06/24 09:51:40;;;;;;;3.70;3.40;;;;;;;24.81;44.43;99524.48;1583791;89;20977;-74
2022/06/24 09:54:07;;;;;;;6.50;4.25;;;;;;;24.75;44.74;99518.41;1586406;89;21251;-77
2022/06/24 09:56:35;;;;;;;4.25;3.85;;;;;;;24.73;44.49;99522.11;1577518;89;21121;-76
2022/06/24 10:01:40;;;;;;;4.60;4.03;;;;;;;24.77;44.45;99524.39;1527622;90;22275;-78
2022/06/24 10:04:15;;;;;;;3.52;3.17;;;;;;;24.73;44.12;99530.36;1567325;90;21059;-74
2022/06/24 10:06:44;;;;;;;3.80;3.40;;;;;;;24.75;44.41;99534.92;1593893;89;21548;-74
2022/06/24 10:09:11;;;;;;;20.10;4.35;;;;;;;24.78;44.66;99521.87;1590705;89;21147;-75
2022/06/24 10:11:42;;;;;;;4.28;3.87;;;;;;;24.85;44.05;99524.01;1576935;89;21560;-75
2022/06/24 10:14:08;;;;;;;5.47;3.58;;;;;;;24.92;43.69;99515.44;1573493;90;22064;-74
2022/06/24 10:16:37;;;;;;;5.20;4.03;;;;;;;25.00;44.11;99528.81;1591330;88;38657;-73
2022/06/24 10:19:03;;;;;;;5.55;3.40;;;;;;;25.06;43.69;99514.46;1574449;87;26382;-76
2022/06/24 10:21:30;;;;;;;8.38;3.92;;;;;;;25.04;43.79;99528.33;1571287;90;21137;-75
2022/06/24 10:23:56;;;;;;;4.53;4.12;;;;;;;25.04;44.19;99532.45;1571299;90;21095;-76
2022/06/24 10:26:31;;;;;;;5.35;4.35;;;;;;;25.05;44.00;99525.23;1569407;90;21174;-75
2022/06/24 10:29:10;;;;;;;9.43;3.77;;;;;;;25.05;43.98;99534.06;1563135;91;21055;-76
2022/06/24 10:31:53;;;;;;;4.78;3.85;;;;;;;25.10;44.31;99532.44;1572365;91;21137;-76
2022/06/24 10:34:33;;;;;;;3.93;3.63;;;;;;;25.13;43.02;99524.28;1605742;87;21031;-79
2022/06/24 10:37:16;;;;;;;9.13;5.28;;;;;;;25.13;43.02;99524.28;1627647;88;21520;-83
2022/06/24 10:39:47;;;;;;;;;;;;;;;25.18;43.49;99521.27;1620299;88;21350;-80
2022/06/24 10:42:14;;;;;;;5.92;5.33;;;;;;;25.21;42.31;99521.16;1581452;90;20167;-74
2022/06/24 10:45:00;;;;;;;6.95;3.72;;;;;;;25.23;42.56;99525.72;1590673;89;21096;-80
2022/06/24 10:47:41;;;;;;;4.72;4.12;;;;;;;25.27;42.66;99516.21;1579667;89;21213;-76
2022/06/24 10:50:14;;;;;;;4.50;3.87;;;;;;;25.33;42.70;99518.91;1579606;90;21178;-72
2022/06/24 10:52:51;;;;;;;4.62;4.22;;;;;;;25.32;42.28;99515.95;1580471;90;21888;-88
2022/06/24 10:55:28;;;;;;;8.68;4.55;;;;;;;25.32;42.73;99512.63;1569082;91;21088;-74
2022/06/24 10:58:08;;;;;;;5.70;3.83;;;;;;;25.36;43.17;99506.64;1573503;89;21584;-80
2022/06/24 11:00:50;;;;;;;4.20;3.83;;;;;;;25.37;42.85;99493.07;1613358;87;21074;-79
2022/06/24 11:03:31;;;;;;;4.07;3.53;;;;;;;25.41;42.66;99503.63;1589751;90;21068;-79
2022/06/24 11:05:57;;;;;;;4.80;4.20;;;;;;;25.51;42.44;99505.87;1563395;91;21219;-76
2022/06/24 11:08:25;;;;;;;4.60;3.58;;;;;;;25.53;41.76;99494.48;1570614;90;21044;-71
2022/06/24 11:10:52;;;;;;;4.22;3.75;;;;;;;25.57;41.86;99497.58;1607693;88;21225;-76
2022/06/24 11:13:21;;;;;;;5.15;3.62;;;;;;;25.65;41.20;99492.27;1604425;88;21079;-75
2022/06/24 11:15:54;;;;;;;4.72;3.67;;;;;;;25.75;41.24;99488.41;1588553;90;21055;-78
2022/06/24 11:18:32;;;;;;;3.65;3.35;;;;;;;25.85;41.10;99502.23;1588663;90;21784;-80
2022/06/24 11:21:09;;;;;;;5.67;3.83;;;;;;;25.90;40.54;99491.70;1576811;89;21021;-75
2022/06/24 11:23:38;;;;;;;9.33;5.97;;;;;;;25.96;40.54;99499.13;1570002;91;21048;-77
2022/06/24 11:26:15;;;;;;;4.08;3.58;;;;;;;26.07;39.44;99483.66;1576622;91;21133;-76
2022/06/24 11:28:45;;;;;;;6.22;3.30;;;;;;;26.18;39.43;99482.54;1576941;90;21612;-77
2022/06/24 11:31:24;;;;;;;3.33;3.00;;;;;;;26.22;39.13;99483.45;1573832;90;21127;-77
2022/06/24 11:34:04;;;;;;;3.80;3.50;;;;;;;26.26;39.75;99476.85;1571061;90;21073;-76
2022/06/24 11:36:32;;;;;;;3.80;3.05;;;;;;;26.35;38.88;99482.16;1563344;91;21078;-72
2022/06/24 11:39:04;;;;;;;4.25;2.95;;;;;;;26.41;39.01;99482.11;1563520;91;21058;-70
2022/06/24 11:41:35;;;;;;;5.47;2.60;;;;;;;26.51;38.76;99473.27;1569092;90;21090;-73
2022/06/24 11:44:02;;;;;;;6.78;3.08;;;;;;;26.56;38.28;99457.02;1569499;90;21510;-77
2022/06/24 11:46:28;;;;;;;3.37;3.08;;;;;;;26.56;37.83;99471.61;1582219;90;21039;-81
2022/06/24 11:49:13;;;;;;;3.75;3.08;;;;;;;26.60;38.34;99473.86;1582677;90;22302;-79
2022/06/24 11:51:41;;;;;;;5.08;3.55;;;;;;;26.70;37.89;99475.25;1580612;90;21004;-78